Time;durP1;ratioP1;P1;durP2;ratioP2;P2;SDS_P1;SDS_P2;PMS_P1;PMS_P2;Temp;Humidity;BMP_temperature;BMP_pressure;BME280_temperature;BME280_humidity;BME280_pressure;Samples;Min_cycle;Max_cycle;Signal;HPM_P1;HPM_P2
2023/12/09 00:01:40;;;;;;;6.60;5.90;;;;;;;8.07;55.70;101851.99;106843;1260;24228;-73
2023/12/09 00:04:08;;;;;;;6.60;5.80;;;;;;;8.08;55.77;101851.83;106881;1259;22752;-72
2023/12/09 00:06:36;;;;;;;6.70;6.00;;;;;;;8.07;55.76;101850.96;106779;1263;22535;-72
2023/12/09 00:09:04;;;;;;;7.10;5.60;;;;;;;8.09;55.77;101850.45;105893;1261;1003519;-73
2023/12/09 00:11:31;;;;;;;6.50;5.80;;;;;;;8.07;55.71;101856.83;106062;1262;1003335;-74
2023/12/09 00:14:03;;;;;;;6.30;5.70;;;;;;;8.05;55.65;101855.77;105893;1263;1003824;-72
2023/12/09 00:16:31;;;;;;;6.20;5.60;;;;;;;8.02;55.64;101859.23;106624;1263;22540;-73
2023/12/09 00:18:59;;;;;;;5.90;5.40;;;;;;;8.02;55.76;101855.59;106773;1264;22720;-73
2023/12/09 00:21:27;;;;;;;5.50;4.70;;;;;;;8.03;55.71;101854.21;106785;1260;22541;-71
2023/12/09 00:23:55;;;;;;;5.30;4.80;;;;;;;8.03;55.64;101855.60;106421;1260;24427;-72
2023/12/09 00:26:22;;;;;;;6.90;5.40;;;;;;;8.03;55.60;101860.27;106664;1264;25322;-72
2023/12/09 00:28:50;;;;;;;5.20;4.70;;;;;;;8.01;55.54;101864.40;106830;1261;22522;-72
2023/12/09 00:31:18;;;;;;;5.00;4.50;;;;;;;7.99;55.44;101863.86;106848;1260;22530;-72
2023/12/09 00:33:46;;;;;;;5.00;4.50;;;;;;;7.98;55.60;101870.59;106154;1260;1003007;-72
2023/12/09 00:36:13;;;;;;;6.50;4.70;;;;;;;7.98;55.50;101871.30;106689;1269;24292;-72
2023/12/09 00:38:41;;;;;;;6.20;4.80;;;;;;;7.97;55.50;101872.83;106513;1263;22570;-73
2023/12/09 00:41:09;;;;;;;5.40;4.90;;;;;;;7.95;55.59;101876.11;106799;1260;22528;-72
2023/12/09 00:43:37;;;;;;;6.40;5.10;;;;;;;7.93;55.52;101877.83;106766;1264;25358;-72
2023/12/09 00:46:05;;;;;;;5.20;4.70;;;;;;;7.93;55.53;101878.16;107028;1266;25361;-74
2023/12/09 00:48:32;;;;;;;5.10;4.50;;;;;;;7.93;55.54;101883.34;107062;1257;23860;-72
2023/12/09 00:51:00;;;;;;;5.00;4.20;;;;;;;7.94;55.63;101875.74;106855;1260;22552;-72
2023/12/09 00:53:28;;;;;;;4.50;3.90;;;;;;;7.96;55.56;101875.95;107136;1256;22538;-73
2023/12/09 00:55:56;;;;;;;4.20;3.40;;;;;;;7.95;55.46;101875.95;107031;1260;25337;-72
2023/12/09 00:58:23;;;;;;;5.50;4.10;;;;;;;7.95;55.30;101878.20;106958;1257;24414;-72
2023/12/09 01:00:51;;;;;;;3.90;3.50;;;;;;;7.93;55.26;101879.54;107036;1257;22549;-72
2023/12/09 01:03:18;;;;;;;4.10;3.60;;;;;;;7.93;55.24;101883.86;107012;1254;22534;-72
2023/12/09 01:05:46;;;;;;;5.50;3.90;;;;;;;7.93;55.05;101889.91;107009;1260;23270;-71
2023/12/09 01:08:14;;;;;;;3.70;3.30;;;;;;;7.92;55.12;101889.90;106808;1260;22532;-72
2023/12/09 01:10:42;;;;;;;4.10;3.60;;;;;;;7.93;55.15;101893.88;107096;1258;22534;-71
2023/12/09 01:13:09;;;;;;;4.50;3.90;;;;;;;7.94;55.14;101893.38;106138;1261;1003019;-72
2023/12/09 01:15:37;;;;;;;4.50;4.10;;;;;;;7.95;55.07;101896.50;107002;1257;22729;-72
2023/12/09 01:18:05;;;;;;;4.40;4.00;;;;;;;7.94;55.12;101896.83;107023;1254;22599;-72
2023/12/09 01:20:33;;;;;;;4.50;3.90;;;;;;;7.94;55.12;101896.81;106890;1267;22546;-71
2023/12/09 01:23:00;;;;;;;4.50;4.00;;;;;;;7.93;55.10;101892.16;106321;1254;1002905;-72
2023/12/09 01:25:28;;;;;;;4.60;4.00;;;;;;;7.94;55.04;101893.38;106248;1257;1002879;-73
2023/12/09 01:27:55;;;;;;;4.50;4.10;;;;;;;7.96;55.15;101896.15;106887;1260;22627;-72
2023/12/09 01:30:23;;;;;;;6.30;4.40;;;;;;;7.98;55.09;101896.52;107054;1254;22533;-72
2023/12/09 01:32:51;;;;;;;4.40;3.90;;;;;;;7.97;54.93;101887.54;107083;1270;25328;-72
2023/12/09 01:35:19;;;;;;;5.20;3.90;;;;;;;7.95;54.93;101887.17;106965;1261;22555;-72
2023/12/09 01:37:47;;;;;;;7.90;4.30;;;;;;;7.95;54.86;101886.30;106865;1258;24378;-72
2023/12/09 01:40:15;;;;;;;4.70;4.20;;;;;;;7.93;54.66;101886.27;106968;1257;22537;-72
2023/12/09 01:42:42;;;;;;;4.20;3.80;;;;;;;7.92;54.81;101880.57;106984;1257;22873;-71
2023/12/09 01:45:10;;;;;;;4.20;3.80;;;;;;;7.91;54.56;101875.03;106604;1263;22526;-72
2023/12/09 01:47:38;;;;;;;3.80;3.50;;;;;;;7.87;54.41;101870.53;106918;1257;22551;-71
2023/12/09 01:50:07;;;;;;;4.40;4.00;;;;;;;7.83;54.56;101876.36;106906;1260;25362;-72
2023/12/09 01:52:35;;;;;;;4.70;4.10;;;;;;;7.81;54.51;101872.73;106849;1256;22539;-71
2023/12/09 01:55:03;;;;;;;4.50;4.10;;;;;;;7.80;54.62;101867.88;106924;1257;22541;-72
2023/12/09 01:57:31;;;;;;;4.30;3.90;;;;;;;7.79;54.70;101866.48;107002;1255;22533;-73
2023/12/09 01:59:59;;;;;;;5.00;4.10;;;;;;;7.78;54.70;101863.38;106185;1256;1002649;-72
2023/12/09 02:02:27;;;;;;;3.90;3.40;;;;;;;7.76;54.71;101866.46;106936;1270;25256;-72
2023/12/09 02:04:55;;;;;;;4.90;4.00;;;;;;;7.75;54.62;101863.52;106937;1264;22526;-72
2023/12/09 02:07:23;;;;;;;4.80;4.00;;;;;;;7.76;54.64;101859.22;106233;1267;1003460;-71
2023/12/09 02:09:51;;;;;;;4.30;3.80;;;;;;;7.74;54.64;101854.54;106883;1260;24363;-72
2023/12/09 02:12:41;;;;;;;5.00;3.90;;;;;;;7.74;54.69;101858.84;106019;1257;1014567;-72
2023/12/09 02:15:13;;;;;;;4.30;3.90;;;;;;;7.74;54.61;101861.10;107004;1254;23862;-72
2023/12/09 02:17:43;;;;;;;5.10;4.60;;;;;;;7.75;54.64;101861.45;107090;1257;22531;-72
2023/12/09 02:20:13;;;;;;;5.80;5.10;;;;;;;7.75;54.63;101860.06;107039;1257;22556;-72
2023/12/09 02:22:41;;;;;;;5.00;4.30;;;;;;;7.76;54.86;101861.80;106943;1254;25348;-72
2023/12/09 02:25:10;;;;;;;5.40;4.60;;;;;;;7.75;54.69;101855.58;106722;1258;25495;-71
2023/12/09 02:27:52;;;;;;;5.50;5.00;;;;;;;7.76;54.66;101851.80;106980;1254;22531;-72
2023/12/09 02:30:25;;;;;;;5.90;5.30;;;;;;;7.75;54.62;101851.09;106806;1261;22647;-72
2023/12/09 02:32:53;;;;;;;6.50;4.70;;;;;;;7.76;54.70;101857.14;106882;1257;25243;-71
2023/12/09 02:35:21;;;;;;;6.30;5.20;;;;;;;7.78;55.00;101862.16;107002;1257;22523;-71
2023/12/09 02:37:49;;;;;;;7.10;5.40;;;;;;;7.80;54.89;101856.83;106220;1273;1002909;-71
2023/12/09 02:40:17;;;;;;;5.70;4.90;;;;;;;7.78;54.81;101850.25;107100;1257;22529;-71
2023/12/09 02:42:45;;;;;;;7.50;4.90;;;;;;;7.73;54.51;101847.80;106848;1261;22528;-72
2023/12/09 02:45:13;;;;;;;4.20;3.80;;;;;;;7.71;54.47;101840.17;106882;1269;22540;-71
2023/12/09 02:47:41;;;;;;;5.80;4.50;;;;;;;7.69;54.56;101838.62;106843;1260;22539;-72
2023/12/09 02:50:09;;;;;;;4.50;4.10;;;;;;;7.68;54.64;101833.59;106668;1257;22528;-72
2023/12/09 02:52:37;;;;;;;6.90;4.40;;;;;;;7.63;54.57;101834.25;106783;1257;25328;-72
2023/12/09 02:55:05;;;;;;;4.90;4.30;;;;;;;7.61;54.37;101845.29;106962;1272;22534;-72
2023/12/09 02:57:33;;;;;;;5.30;4.70;;;;;;;7.61;54.62;101847.02;106165;1260;1003640;-71
2023/12/09 03:00:05;;;;;;;5.90;5.20;;;;;;;7.63;54.67;101848.57;106908;1257;22539;-71
2023/12/09 03:02:33;;;;;;;7.10;5.70;;;;;;;7.62;54.70;101848.23;106824;1261;23139;-72
2023/12/09 03:05:01;;;;;;;7.00;5.90;;;;;;;7.63;54.66;101842.36;107100;1257;22520;-71
2023/12/09 03:07:28;;;;;;;7.10;5.90;;;;;;;7.61;54.72;101838.39;106635;1263;22531;-71
2023/12/09 03:09:56;;;;;;;6.80;5.20;;;;;;;7.61;54.69;101839.77;107041;1257;22535;-72
2023/12/09 03:12:24;;;;;;;7.50;5.80;;;;;;;7.60;54.84;101841.48;106907;1260;25301;-71
2023/12/09 03:14:52;;;;;;;5.70;5.20;;;;;;;7.62;54.79;101841.51;107006;1257;25246;-72
2023/12/09 03:17:21;;;;;;;7.90;6.50;;;;;;;7.63;54.95;101848.92;107077;1255;22539;-74
2023/12/09 03:19:49;;;;;;;7.10;6.20;;;;;;;7.63;54.89;101853.07;107056;1257;22524;-73
2023/12/09 03:22:16;;;;;;;6.00;5.40;;;;;;;7.63;54.76;101857.39;106847;1253;25386;-72
2023/12/09 03:24:44;;;;;;;6.60;5.90;;;;;;;7.62;54.85;101863.08;107020;1252;22533;-74
2023/12/09 03:27:12;;;;;;;5.70;4.90;;;;;;;7.64;54.84;101862.58;106811;1253;25356;-73
2023/12/09 03:29:40;;;;;;;7.40;4.70;;;;;;;7.64;54.72;101866.90;106279;1254;1002995;-73
2023/12/09 03:32:08;;;;;;;7.00;5.40;;;;;;;7.62;54.68;101858.25;107108;1254;23862;-71
2023/12/09 03:34:35;;;;;;;5.70;5.00;;;;;;;7.58;54.82;101859.59;106905;1253;24259;-71
2023/12/09 03:37:03;;;;;;;7.10;5.30;;;;;;;7.61;54.75;101858.59;106925;1257;24302;-73
2023/12/09 03:39:31;;;;;;;7.50;5.40;;;;;;;7.62;54.57;101858.42;106929;1254;22546;-71
2023/12/09 03:41:59;;;;;;;8.50;6.40;;;;;;;7.66;54.61;101857.58;106788;1257;24663;-71
2023/12/09 03:44:27;;;;;;;7.80;6.60;;;;;;;7.60;54.72;101860.30;106911;1260;22533;-71
2023/12/09 03:46:54;;;;;;;5.70;4.60;;;;;;;7.67;54.51;101857.08;106648;1254;352308;-70
2023/12/09 03:49:22;;;;;;;6.10;5.20;;;;;;;7.66;54.19;101850.84;106951;1256;22533;-70
2023/12/09 03:51:50;;;;;;;7.00;5.30;;;;;;;7.68;54.16;101850.35;106825;1262;25243;-70
2023/12/09 03:54:18;;;;;;;6.30;5.50;;;;;;;7.70;54.15;101854.00;106889;1260;22549;-70
2023/12/09 03:56:46;;;;;;;6.80;5.60;;;;;;;7.70;54.08;101854.67;106845;1261;22556;-71
2023/12/09 03:59:14;;;;;;;6.40;5.70;;;;;;;7.73;54.15;101857.29;106923;1257;22526;-71
2023/12/09 04:01:48;;;;;;;6.50;5.60;;;;;;;7.73;54.04;101859.54;106748;1261;22530;-71
2023/12/09 04:04:16;;;;;;;8.00;6.10;;;;;;;7.74;54.18;101861.10;107072;1257;25430;-70
2023/12/09 04:06:44;;;;;;;8.10;6.70;;;;;;;7.70;54.23;101855.37;106823;1257;25303;-71
2023/12/09 04:09:12;;;;;;;7.70;6.80;;;;;;;7.54;54.67;101856.96;106946;1256;23350;-71
2023/12/09 04:11:40;;;;;;;8.40;7.30;;;;;;;7.67;54.29;101856.21;107086;1258;24044;-70
2023/12/09 04:14:08;;;;;;;8.60;7.50;;;;;;;7.71;54.05;101852.95;106940;1257;22527;-70
2023/12/09 04:16:35;;;;;;;9.20;7.80;;;;;;;7.71;54.19;101855.02;106109;1254;1003042;-71
2023/12/09 04:19:03;;;;;;;8.80;7.20;;;;;;;7.69;54.14;101857.09;106953;1257;22570;-71
2023/12/09 04:21:34;;;;;;;8.20;7.20;;;;;;;7.69;54.35;101860.88;107067;1252;22534;-70
2023/12/09 04:24:03;;;;;;;9.20;7.80;;;;;;;7.67;54.24;101857.77;106893;1259;22529;-70
2023/12/09 04:26:31;;;;;;;9.30;7.50;;;;;;;7.68;54.32;101861.92;106942;1260;22532;-71
2023/12/09 04:28:58;;;;;;;10.40;8.40;;;;;;;7.68;54.22;101865.36;107091;1256;24008;-71
2023/12/09 04:31:26;;;;;;;10.20;8.50;;;;;;;7.66;54.13;101881.59;106786;1270;22550;-71
2023/12/09 04:33:54;;;;;;;11.00;8.10;;;;;;;7.64;54.05;101889.69;106968;1257;22533;-71
2023/12/09 04:36:21;;;;;;;10.80;7.80;;;;;;;7.63;54.09;101892.96;107025;1254;22534;-71
2023/12/09 04:38:49;;;;;;;9.40;8.30;;;;;;;7.63;54.18;101892.45;107114;1253;22527;-71
2023/12/09 04:41:17;;;;;;;9.30;7.80;;;;;;;7.66;54.19;101901.96;106136;1255;1003755;-71
2023/12/09 04:43:44;;;;;;;9.20;7.50;;;;;;;7.66;54.19;101902.48;106257;1256;1002592;-71
2023/12/09 04:46:12;;;;;;;9.40;8.00;;;;;;;7.69;54.16;101905.09;106805;1260;22530;-71
2023/12/09 04:48:41;;;;;;;8.50;7.60;;;;;;;7.68;53.94;101905.95;106799;1261;22534;-72
2023/12/09 04:51:09;;;;;;;9.50;7.90;;;;;;;7.67;53.90;101912.86;106906;1254;22523;-71
2023/12/09 04:53:37;;;;;;;11.30;9.10;;;;;;;7.67;53.94;101921.85;106978;1252;24259;-71
2023/12/09 04:56:08;;;;;;;9.90;8.30;;;;;;;7.70;53.87;101923.94;107116;1258;22484;-71
2023/12/09 04:58:36;;;;;;;9.50;7.80;;;;;;;7.72;53.94;101924.48;106855;1256;22553;-71
2023/12/09 05:01:04;;;;;;;10.30;8.80;;;;;;;7.74;53.87;101924.65;106821;1257;22540;-71
2023/12/09 05:03:32;;;;;;;9.60;8.60;;;;;;;7.77;53.94;101920.55;107029;1261;22531;-71
2023/12/09 05:06:00;;;;;;;11.40;8.80;;;;;;;8.20;52.53;101918.10;107033;1254;22531;-73
2023/12/09 05:08:28;;;;;;;9.80;8.80;;;;;;;8.36;52.37;101919.77;106913;1270;22533;-71
2023/12/09 05:10:56;;;;;;;10.50;8.90;;;;;;;8.23;52.59;101913.11;107036;1257;22533;-71
2023/12/09 05:13:24;;;;;;;9.80;8.20;;;;;;;7.94;53.46;101911.70;106968;1255;22534;-71
2023/12/09 05:15:51;;;;;;;11.20;8.80;;;;;;;7.85;53.65;101916.62;106734;1260;24193;-71
2023/12/09 05:18:19;;;;;;;10.90;7.50;;;;;;;7.82;53.58;101924.38;106665;1258;25266;-71
2023/12/09 05:20:47;;;;;;;10.50;8.50;;;;;;;7.79;53.70;101917.80;106703;1260;22556;-71
2023/12/09 05:23:15;;;;;;;9.40;7.70;;;;;;;7.80;53.64;101918.83;106589;1263;25245;-71
2023/12/09 05:25:43;;;;;;;9.00;8.10;;;;;;;7.79;53.63;101910.71;106745;1260;25418;-71
2023/12/09 05:28:11;;;;;;;9.40;7.90;;;;;;;7.79;53.45;101914.86;106719;1258;22621;-71
2023/12/09 05:30:40;;;;;;;9.30;7.90;;;;;;;7.80;53.60;101916.23;106586;1270;22557;-70
2023/12/09 05:33:08;;;;;;;10.10;7.30;;;;;;;7.81;53.56;101914.52;105902;1258;1003022;-71
2023/12/09 05:35:36;;;;;;;7.70;6.90;;;;;;;7.81;53.57;101923.69;106808;1260;22550;-71
2023/12/09 05:38:04;;;;;;;8.50;6.50;;;;;;;7.82;53.46;101925.93;106664;1262;22543;-71
2023/12/09 05:40:32;;;;;;;6.50;5.80;;;;;;;7.83;53.46;101929.39;106757;1258;22581;-71
2023/12/09 05:43:02;;;;;;;7.60;5.50;;;;;;;7.81;53.18;101929.20;106747;1261;22533;-73
2023/12/09 05:45:30;;;;;;;8.00;5.70;;;;;;;7.81;53.05;101926.96;106458;1265;25357;-70
2023/12/09 05:47:58;;;;;;;8.70;5.50;;;;;;;7.80;53.30;101926.42;106858;1260;22530;-70
2023/12/09 05:50:26;;;;;;;6.50;5.10;;;;;;;7.80;53.12;101922.80;106871;1258;22541;-71
2023/12/09 05:52:53;;;;;;;7.20;6.20;;;;;;;7.79;53.07;101925.91;107078;1255;22538;-71
2023/12/09 05:55:21;;;;;;;6.70;5.60;;;;;;;7.79;53.06;101930.05;106952;1253;22550;-70
2023/12/09 05:57:49;;;;;;;6.80;6.10;;;;;;;7.77;53.08;101928.15;106965;1256;24210;-70
2023/12/09 06:00:16;;;;;;;7.40;6.10;;;;;;;7.77;53.14;101940.41;106783;1258;22547;-70
2023/12/09 06:02:44;;;;;;;7.60;6.10;;;;;;;7.79;53.23;101945.60;107024;1257;22527;-70
2023/12/09 06:05:12;;;;;;;7.10;6.40;;;;;;;7.80;53.08;101948.89;106898;1256;22531;-71
2023/12/09 06:07:40;;;;;;;7.40;6.40;;;;;;;7.81;53.16;101949.42;106940;1259;22530;-70
2023/12/09 06:10:08;;;;;;;8.00;7.00;;;;;;;7.82;53.31;101951.85;106864;1257;22532;-70
2023/12/09 06:12:36;;;;;;;8.60;6.80;;;;;;;7.83;53.06;101950.47;106875;1257;22534;-71
2023/12/09 06:15:05;;;;;;;7.80;6.50;;;;;;;7.83;53.09;101952.89;106998;1256;22526;-71
2023/12/09 06:17:33;;;;;;;9.00;7.00;;;;;;;7.82;52.99;101953.58;106895;1255;22761;-71
2023/12/09 06:20:01;;;;;;;7.70;6.90;;;;;;;7.83;53.20;101956.86;106752;1255;22546;-71
2023/12/09 06:22:29;;;;;;;9.30;7.40;;;;;;;7.84;53.18;101957.91;106802;1260;23864;-71
2023/12/09 06:24:57;;;;;;;9.60;6.40;;;;;;;7.86;53.06;101957.75;106829;1255;22533;-70
2023/12/09 06:27:25;;;;;;;7.80;6.70;;;;;;;7.86;53.15;101953.25;106611;1260;22532;-71
2023/12/09 06:29:53;;;;;;;7.70;6.90;;;;;;;7.87;52.99;101951.71;106771;1259;22548;-70
2023/12/09 06:32:21;;;;;;;10.00;6.90;;;;;;;7.86;53.15;101948.08;106550;1262;25341;-70
2023/12/09 06:34:48;;;;;;;8.30;6.80;;;;;;;7.88;53.21;101947.23;106709;1261;22544;-70
2023/12/09 06:37:16;;;;;;;7.60;6.30;;;;;;;7.86;53.11;101952.57;106611;1260;22658;-70
2023/12/09 06:39:44;;;;;;;7.20;5.80;;;;;;;7.86;53.08;101957.57;106623;1261;24227;-70
2023/12/09 06:42:13;;;;;;;9.10;7.40;;;;;;;7.85;53.13;101961.55;106787;1255;22587;-70
2023/12/09 06:44:41;;;;;;;8.80;7.40;;;;;;;7.84;53.29;101956.18;106643;1263;22541;-70
2023/12/09 06:47:12;;;;;;;7.40;6.60;;;;;;;7.82;53.09;101964.46;106659;1260;22546;-71
2023/12/09 06:49:40;;;;;;;8.10;6.70;;;;;;;7.82;53.13;101964.11;105668;1260;1002927;-70
2023/12/09 06:52:08;;;;;;;8.90;7.10;;;;;;;7.82;53.38;101963.94;106512;1265;22590;-72
2023/12/09 06:54:36;;;;;;;8.80;7.50;;;;;;;7.82;53.39;101965.15;105954;1267;24146;-72
2023/12/09 06:57:04;;;;;;;8.70;7.90;;;;;;;7.84;53.21;101968.63;106395;1264;24281;-70
2023/12/09 06:59:32;;;;;;;10.50;9.10;;;;;;;7.83;53.35;101968.79;105655;1264;1003562;-71
2023/12/09 07:01:59;;;;;;;10.30;9.00;;;;;;;7.84;53.44;101966.73;105685;1262;1003599;-71
2023/12/09 07:04:27;;;;;;;9.80;8.60;;;;;;;7.84;53.41;101973.98;105741;1267;1002954;-71
2023/12/09 07:07:06;;;;;;;9.90;8.90;;;;;;;7.82;53.49;101971.02;106298;1261;22560;-70
2023/12/09 07:09:37;;;;;;;8.60;7.70;;;;;;;7.82;53.52;101966.88;105726;1261;1003418;-71
2023/12/09 07:12:05;;;;;;;9.70;8.10;;;;;;;7.80;53.50;101960.13;106206;1267;22539;-71
2023/12/09 07:14:33;;;;;;;10.80;8.50;;;;;;;7.93;53.04;101964.20;106425;1261;22658;-71
2023/12/09 07:17:01;;;;;;;10.20;8.50;;;;;;;7.79;53.46;101964.08;106406;1261;23942;-71
2023/12/09 07:19:29;;;;;;;10.20;9.10;;;;;;;7.74;53.53;101962.33;106534;1259;22549;-71
2023/12/09 07:21:56;;;;;;;8.00;7.20;;;;;;;7.73;53.49;101964.20;106615;1263;24295;-72
2023/12/09 07:24:24;;;;;;;9.40;7.40;;;;;;;7.73;53.74;101963.34;106745;1257;24110;-71
2023/12/09 07:26:52;;;;;;;8.40;7.50;;;;;;;7.72;53.79;101961.27;106932;1255;25314;-71
2023/12/09 07:29:20;;;;;;;8.90;7.70;;;;;;;7.72;53.70;101964.55;106391;1261;22536;-71
2023/12/09 07:31:48;;;;;;;8.40;7.50;;;;;;;7.74;53.94;101962.15;106430;1264;22551;-71
2023/12/09 07:34:16;;;;;;;10.10;7.40;;;;;;;7.74;53.83;101952.13;105596;1261;1003614;-71
2023/12/09 07:36:44;;;;;;;7.90;7.10;;;;;;;7.75;53.91;101948.16;106461;1264;22619;-71
2023/12/09 07:39:12;;;;;;;8.20;7.40;;;;;;;7.74;53.80;101949.88;106450;1261;25360;-71
2023/12/09 07:41:41;;;;;;;8.60;7.40;;;;;;;7.73;53.84;101954.52;106317;1261;25305;-72
2023/12/09 07:44:09;;;;;;;8.30;7.40;;;;;;;7.72;53.86;101950.03;105718;1261;1003918;-71
2023/12/09 07:46:37;;;;;;;7.90;6.80;;;;;;;7.72;53.98;101946.06;106387;1263;24371;-71
2023/12/09 07:49:05;;;;;;;8.30;7.50;;;;;;;7.73;53.99;101941.58;106638;1264;24207;-71
2023/12/09 07:51:33;;;;;;;10.20;7.60;;;;;;;7.73;53.89;101942.96;106518;1263;22533;-71
2023/12/09 07:54:01;;;;;;;8.70;7.80;;;;;;;7.72;53.94;101944.85;105599;1260;1003460;-70
2023/12/09 07:56:28;;;;;;;8.30;7.40;;;;;;;7.72;54.04;101940.36;106409;1271;22554;-71
2023/12/09 07:58:57;;;;;;;7.80;6.80;;;;;;;7.73;54.19;101935.36;106396;1264;22549;-71
2023/12/09 08:01:26;;;;;;;8.10;7.30;;;;;;;7.72;54.18;101936.38;106695;1261;22540;-70
2023/12/09 08:03:54;;;;;;;8.70;7.60;;;;;;;8.04;53.30;101937.68;106677;1261;24316;-71
2023/12/09 08:06:22;;;;;;;8.90;7.20;;;;;;;8.30;52.38;101933.23;106717;1256;22542;-70
2023/12/09 08:08:50;;;;;;;8.50;7.60;;;;;;;7.89;53.46;101937.74;106722;1260;25247;-71
2023/12/09 08:11:19;;;;;;;7.50;6.70;;;;;;;7.76;53.85;101933.83;106697;1270;22738;-71
2023/12/09 08:13:47;;;;;;;9.80;6.90;;;;;;;7.75;53.97;101939.52;106701;1260;22528;-71
2023/12/09 08:16:15;;;;;;;7.10;6.30;;;;;;;7.76;53.95;101934.88;106431;1264;22522;-71
2023/12/09 08:18:42;;;;;;;7.70;6.10;;;;;;;7.77;54.01;101926.77;106755;1271;24471;-71
2023/12/09 08:21:11;;;;;;;6.60;5.70;;;;;;;7.79;53.68;101923.66;106602;1258;22546;-70
2023/12/09 08:23:39;;;;;;;6.70;5.70;;;;;;;7.82;53.74;101922.81;106732;1262;25248;-71
2023/12/09 08:26:07;;;;;;;7.50;6.40;;;;;;;7.88;53.86;101915.80;106746;1261;25324;-71
2023/12/09 08:28:35;;;;;;;6.60;5.70;;;;;;;7.91;53.61;101908.38;106105;1257;1015598;-71
2023/12/09 08:31:04;;;;;;;8.10;6.90;;;;;;;7.92;53.45;101910.12;105966;1260;1002905;-71
2023/12/09 08:33:32;;;;;;;7.40;6.70;;;;;;;7.95;53.45;101914.81;106517;1262;22636;-71
2023/12/09 08:36:00;;;;;;;7.90;6.70;;;;;;;7.92;53.49;101915.30;106126;1255;1003384;-71
2023/12/09 08:38:28;;;;;;;7.70;6.60;;;;;;;7.92;53.38;101924.96;105916;1261;1003451;-71
2023/12/09 08:40:55;;;;;;;7.70;6.90;;;;;;;7.92;53.43;101929.46;105905;1260;1002943;-71
2023/12/09 08:43:23;;;;;;;7.10;6.40;;;;;;;7.92;53.31;101930.34;106164;1255;1003674;-71
2023/12/09 08:45:51;;;;;;;8.20;6.90;;;;;;;7.94;53.50;101932.59;106748;1260;22528;-71
2023/12/09 08:48:19;;;;;;;8.00;6.60;;;;;;;7.96;53.68;101930.02;106872;1255;24194;-70
2023/12/09 08:50:47;;;;;;;9.20;6.80;;;;;;;7.98;53.51;101933.67;106395;1261;25281;-71
2023/12/09 08:53:15;;;;;;;7.40;6.60;;;;;;;8.00;53.47;101928.49;106693;1256;22536;-71
2023/12/09 08:55:44;;;;;;;8.30;6.90;;;;;;;8.01;53.61;101920.56;106777;1256;22560;-71
2023/12/09 08:58:12;;;;;;;7.30;6.60;;;;;;;8.01;53.48;101925.57;106594;1261;25359;-71
2023/12/09 09:00:39;;;;;;;9.10;7.10;;;;;;;8.01;53.48;101924.02;106803;1259;25267;-71
2023/12/09 09:03:08;;;;;;;7.90;6.80;;;;;;;8.00;53.33;101914.50;106821;1258;22527;-71
2023/12/09 09:05:36;;;;;;;10.70;9.20;;;;;;;7.99;53.37;101906.73;107166;1256;22518;-67
2023/12/09 09:08:04;;;;;;;9.70;8.70;;;;;;;8.00;53.63;101902.05;106935;1252;22522;-67
2023/12/09 09:10:32;;;;;;;9.40;8.40;;;;;;;7.98;53.66;101896.69;106640;1256;22773;-69
2023/12/09 09:13:00;;;;;;;10.20;8.10;;;;;;;7.96;53.62;101895.11;106725;1255;22530;-69
2023/12/09 09:15:28;;;;;;;10.70;8.50;;;;;;;7.91;53.57;101895.24;106786;1268;25363;-68
2023/12/09 09:17:56;;;;;;;10.60;9.20;;;;;;;7.89;53.79;101895.92;106869;1269;22546;-68
2023/12/09 09:20:24;;;;;;;10.10;9.00;;;;;;;7.89;53.95;101893.51;106313;1257;1003531;-68
2023/12/09 09:22:52;;;;;;;10.50;9.30;;;;;;;7.90;53.92;101893.17;106083;1255;1003317;-69
2023/12/09 09:29:39;;;;;;;10.40;8.70;;;;;;;7.91;54.08;101896.63;106808;1269;1003341;-65
2023/12/09 09:32:07;;;;;;;12.20;10.00;;;;;;;7.91;53.93;101896.98;107224;1255;24289;-67
2023/12/09 09:34:35;;;;;;;10.00;8.30;;;;;;;7.93;54.03;101899.23;107369;1257;24204;-67
2023/12/09 09:37:03;;;;;;;11.50;9.40;;;;;;;7.95;53.86;101899.95;107175;1268;24193;-67
2023/12/09 09:39:31;;;;;;;11.50;9.20;;;;;;;7.96;53.73;101898.23;107010;1270;22525;-67
2023/12/09 09:42:12;;;;;;;10.70;9.60;;;;;;;7.96;53.76;101894.60;106933;1260;22536;-66
2023/12/09 09:44:45;;;;;;;9.50;8.20;;;;;;;7.96;53.76;101892.88;106931;1260;24246;-67
2023/12/09 09:47:12;;;;;;;10.80;9.10;;;;;;;7.97;53.58;101893.58;106902;1270;22536;-67
2023/12/09 09:49:40;;;;;;;11.30;9.60;;;;;;;7.98;53.53;101889.27;106146;1260;1015768;-67
2023/12/09 09:52:09;;;;;;;9.60;8.60;;;;;;;8.00;53.54;101893.42;106897;1258;22544;-67
2023/12/09 09:54:37;;;;;;;8.80;7.50;;;;;;;7.99;53.40;101892.56;106909;1270;23996;-66
2023/12/09 09:57:08;;;;;;;8.80;7.90;;;;;;;8.01;53.50;101887.20;106875;1258;22527;-66
2023/12/09 09:59:36;;;;;;;12.90;10.40;;;;;;;8.00;53.58;101887.03;106104;1258;1003778;-72
2023/12/09 10:02:07;;;;;;;10.70;8.90;;;;;;;7.98;53.35;101884.60;105789;1258;1002994;-66
2023/12/09 10:04:35;;;;;;;9.80;8.80;;;;;;;7.99;53.23;101882.36;106511;1258;22585;-67
2023/12/09 10:07:04;;;;;;;9.60;8.50;;;;;;;7.98;53.12;101888.57;105844;1274;1003042;-66
2023/12/09 10:09:33;;;;;;;10.10;9.00;;;;;;;7.92;53.50;101890.77;106660;1262;23011;-67
2023/12/09 10:12:01;;;;;;;10.60;8.50;;;;;;;7.91;53.38;101885.91;107274;1257;22208;-67
2023/12/09 10:14:29;;;;;;;11.10;9.20;;;;;;;7.92;53.46;101886.27;106858;1274;22527;-67
2023/12/09 10:16:57;;;;;;;10.90;9.30;;;;;;;7.93;53.71;101892.15;106685;1260;22537;-66
2023/12/09 10:19:25;;;;;;;11.00;9.60;;;;;;;7.94;53.53;101891.30;106499;1260;22537;-67
2023/12/09 10:21:53;;;;;;;11.10;9.50;;;;;;;7.93;53.58;101890.77;105941;1258;1003319;-66
2023/12/09 10:24:21;;;;;;;11.30;9.80;;;;;;;7.92;53.57;101886.63;106570;1271;26756;-67
2023/12/09 10:26:49;;;;;;;10.90;9.70;;;;;;;7.92;53.54;101888.86;106025;1259;1003048;-68
2023/12/09 10:29:17;;;;;;;9.20;7.70;;;;;;;7.92;53.72;101888.34;105960;1258;1003819;-66
2023/12/09 10:31:45;;;;;;;9.50;7.20;;;;;;;7.94;53.24;101883.88;106026;1258;1003357;-67
2023/12/09 10:34:14;;;;;;;7.60;6.60;;;;;;;7.96;53.06;101882.85;106788;1261;22533;-66
2023/12/09 10:36:42;;;;;;;8.50;6.90;;;;;;;7.98;52.64;101885.98;106597;1260;22536;-66
2023/12/09 10:39:10;;;;;;;12.40;9.50;;;;;;;8.01;52.51;101882.55;106686;1261;22658;-65
2023/12/09 10:41:38;;;;;;;10.10;8.40;;;;;;;8.04;52.51;101879.96;106825;1258;22547;-66
2023/12/09 10:44:06;;;;;;;9.70;7.60;;;;;;;8.06;52.62;101873.77;106097;1270;1003175;-65
2023/12/09 10:46:33;;;;;;;12.80;9.50;;;;;;;8.07;52.54;101870.48;106736;1255;22546;-64
2023/12/09 10:49:05;;;;;;;15.10;11.30;;;;;;;8.08;52.68;101861.33;105896;1271;1002952;-66
2023/12/09 10:51:34;;;;;;;15.50;10.80;;;;;;;8.08;52.62;101854.77;106539;1271;22555;-66
2023/12/09 10:54:02;;;;;;;10.30;9.00;;;;;;;8.07;52.63;101852.69;105963;1276;1003743;-65
2023/12/09 10:56:30;;;;;;;12.20;8.60;;;;;;;8.07;52.82;101854.08;106901;1272;25748;-67
2023/12/09 10:58:58;;;;;;;12.30;9.00;;;;;;;8.05;52.72;101861.65;106408;1261;22684;-68
2023/12/09 11:01:27;;;;;;;10.10;8.80;;;;;;;8.02;52.77;101853.01;106461;1272;23337;-67
2023/12/09 11:03:54;;;;;;;7.90;7.10;;;;;;;8.01;52.67;101849.02;105800;1276;1002945;-65
2023/12/09 11:06:22;;;;;;;7.60;6.10;;;;;;;7.98;52.63;101846.23;106037;1258;1004195;-64
2023/12/09 11:08:50;;;;;;;11.90;8.70;;;;;;;7.95;52.73;101845.36;106891;1266;22558;-64
2023/12/09 11:11:18;;;;;;;10.90;8.00;;;;;;;7.91;53.03;101844.29;106842;1258;22536;-66
2023/12/09 11:13:48;;;;;;;11.60;9.20;;;;;;;7.74;53.37;101836.41;106611;1263;25253;-67
2023/12/09 11:16:21;;;;;;;9.90;8.10;;;;;;;7.71;53.44;101841.73;106677;1261;22536;-66
2023/12/09 11:18:53;;;;;;;9.80;8.40;;;;;;;7.67;53.50;101838.25;106696;1261;22539;-65
2023/12/09 11:21:23;;;;;;;10.20;8.60;;;;;;;7.66;53.47;101833.75;106610;1258;22568;-66
2023/12/09 11:23:52;;;;;;;11.20;9.60;;;;;;;7.64;53.47;101835.29;106762;1259;25253;-65
2023/12/09 11:26:33;;;;;;;10.80;9.60;;;;;;;7.65;53.66;101829.77;107007;1272;24325;-66
2023/12/09 11:29:10;;;;;;;9.70;8.70;;;;;;;7.66;53.54;101827.02;107389;1264;22529;-65